Time;durP1;ratioP1;P1;durP2;ratioP2;P2;SDS_P1;SDS_P2;PMS_P1;PMS_P2;Temp;Humidity;BMP_temperature;BMP_pressure;BME280_temperature;BME280_humidity;BME280_pressure;Samples;Min_cycle;Max_cycle;Signal;HPM_P1;HPM_P2
2023/08/05 00:02:18;;;;;;;9.48;3.60;;;15.70;99.90;;;;;;5080966;28;20079;-59
2023/08/05 00:04:44;;;;;;;7.75;3.47;;;15.70;99.90;;;;;;5080589;28;20055;-60
2023/08/05 00:07:09;;;;;;;12.70;3.85;;;15.70;99.90;;;;;;5082018;28;20124;-60
2023/08/05 00:09:35;;;;;;;8.43;4.28;;;15.70;99.90;;;;;;5079532;28;20044;-60
2023/08/05 00:12:01;;;;;;;8.27;4.15;;;15.70;99.90;;;;;;5081639;28;20036;-60
2023/08/05 00:14:26;;;;;;;8.77;4.20;;;15.70;99.90;;;;;;5079736;28;20051;-60
2023/08/05 00:16:52;;;;;;;9.70;3.92;;;15.80;99.90;;;;;;5081328;28;20049;-60
2023/08/05 00:19:18;;;;;;;9.45;4.15;;;15.80;99.90;;;;;;5080029;28;20040;-58
2023/08/05 00:21:43;;;;;;;10.60;3.80;;;15.80;99.90;;;;;;5080574;28;20044;-60
2023/08/05 00:24:09;;;;;;;7.80;3.80;;;15.70;99.90;;;;;;5063350;28;20052;-59
2023/08/05 00:26:34;;;;;;;10.00;4.55;;;15.80;99.90;;;;;;5079521;28;20061;-58
2023/08/05 00:29:00;;;;;;;10.70;4.32;;;15.70;99.90;;;;;;5081295;28;20100;-60
2023/08/05 00:31:26;;;;;;;8.38;4.10;;;15.80;99.90;;;;;;5079292;28;20063;-60
2023/08/05 00:33:51;;;;;;;9.43;4.80;;;15.80;99.90;;;;;;5081215;28;20054;-60
2023/08/05 00:36:17;;;;;;;12.15;4.85;;;15.80;99.90;;;;;;5079532;28;20510;-60
2023/08/05 00:38:44;;;;;;;10.38;4.43;;;15.70;99.90;;;;;;5080284;28;20060;-59
2023/08/05 00:41:09;;;;;;;10.00;4.90;;;15.60;99.90;;;;;;5080814;28;20071;-59
2023/08/05 00:43:35;;;;;;;9.32;4.40;;;15.70;99.90;;;;;;5079420;28;20499;-60
2023/08/05 00:46:01;;;;;;;8.30;3.92;;;15.60;99.90;;;;;;5081261;28;20040;-60
2023/08/05 00:48:27;;;;;;;9.35;4.50;;;15.50;99.90;;;;;;5078598;28;20522;-60
2023/08/05 00:50:54;;;;;;;11.40;4.90;;;15.50;99.90;;;;;;5081058;28;20044;-60
2023/08/05 00:53:23;;;;;;;10.40;4.80;;;15.40;99.90;;;;;;5078965;28;20068;-60
2023/08/05 00:55:51;;;;;;;10.60;4.72;;;15.50;99.90;;;;;;5081409;28;20097;-59
2023/08/05 00:58:17;;;;;;;9.30;4.60;;;15.50;99.90;;;;;;5098940;28;20040;-60
2023/08/05 01:00:42;;;;;;;12.13;4.97;;;15.40;99.90;;;;;;5081092;28;20126;-60
2023/08/05 01:03:08;;;;;;;9.95;5.03;;;15.30;99.90;;;;;;5083004;28;20044;-60
2023/08/05 01:05:35;;;;;;;12.70;5.22;;;15.40;99.90;;;;;;5098751;28;20395;-60
2023/08/05 01:08:02;;;;;;;9.73;5.22;;;15.30;99.90;;;;;;5100830;28;20043;-61
2023/08/05 01:10:28;;;;;;;9.57;5.53;;;15.30;99.90;;;;;;5098238;28;20051;-60
2023/08/05 01:12:54;;;;;;;11.93;5.32;;;15.10;99.90;;;;;;5100351;28;20403;-60
2023/08/05 01:15:19;;;;;;;9.70;5.80;;;15.10;99.90;;;;;;5100183;28;20098;-59
2023/08/05 01:17:45;;;;;;;10.77;5.30;;;15.00;99.90;;;;;;5098926;28;20555;-60
2023/08/05 01:20:13;;;;;;;9.43;5.25;;;15.00;99.90;;;;;;5082439;28;20048;-60
2023/08/05 01:22:50;;;;;;;9.02;4.95;;;15.00;99.90;;;;;;5098657;28;20044;-60
2023/08/05 01:25:34;;;;;;;9.75;5.10;;;14.90;99.90;;;;;;5100403;28;20056;-60
2023/08/05 01:28:01;;;;;;;10.70;5.50;;;15.00;99.90;;;;;;5099950;28;20457;-59
2023/08/05 01:30:29;;;;;;;10.85;5.07;;;14.90;99.90;;;;;;5098877;28;20036;-60
2023/08/05 01:32:57;;;;;;;11.13;4.93;;;14.90;99.90;;;;;;5100901;28;20177;-59
2023/08/05 01:35:23;;;;;;;11.02;5.60;;;14.90;99.90;;;;;;5079890;28;20093;-59
2023/08/05 01:37:49;;;;;;;11.50;5.40;;;14.90;99.90;;;;;;5100361;28;20048;-59
2023/08/05 01:40:15;;;;;;;11.85;5.97;;;14.90;99.90;;;;;;5097996;28;20094;-60
2023/08/05 01:42:41;;;;;;;11.27;5.93;;;14.90;99.90;;;;;;5100110;28;20040;-59
2023/08/05 01:45:07;;;;;;;8.98;5.20;;;14.90;99.90;;;;;;5099456;28;20092;-60
2023/08/05 01:47:33;;;;;;;9.68;5.57;;;14.90;99.90;;;;;;5098719;28;20043;-59
2023/08/05 01:49:59;;;;;;;11.00;5.53;;;14.80;99.90;;;;;;5100015;28;20096;-59
2023/08/05 01:52:24;;;;;;;10.23;5.60;;;14.80;99.90;;;;;;5098196;28;20483;-59
2023/08/05 01:54:50;;;;;;;9.35;5.22;;;14.80;99.90;;;;;;5100256;28;20372;-60
2023/08/05 01:57:16;;;;;;;9.52;5.15;;;14.70;99.90;;;;;;5084433;28;20052;-59
2023/08/05 01:59:42;;;;;;;10.70;5.22;;;14.60;99.90;;;;;;5079231;28;20049;-60
2023/08/05 02:02:07;;;;;;;12.32;5.45;;;14.70;99.90;;;;;;5078302;28;20044;-59
2023/08/05 02:04:33;;;;;;;10.20;5.22;;;14.70;99.90;;;;;;5078516;28;20055;-59
2023/08/05 02:06:59;;;;;;;10.63;5.80;;;14.60;99.90;;;;;;5079318;28;20105;-59
2023/08/05 02:09:24;;;;;;;11.43;6.05;;;14.60;99.90;;;;;;5077481;28;20086;-58
2023/08/05 02:11:50;;;;;;;10.25;5.07;;;14.50;99.90;;;;;;5079544;28;20045;-58
2023/08/05 02:14:16;;;;;;;11.25;6.15;;;14.50;99.90;;;;;;5077653;28;20043;-58
2023/08/05 02:16:41;;;;;;;10.43;5.05;;;14.50;99.90;;;;;;5078970;28;20041;-58
2023/08/05 02:19:07;;;;;;;10.60;5.90;;;14.40;99.90;;;;;;5077459;28;20125;-58
2023/08/05 02:21:33;;;;;;;9.60;5.32;;;14.40;99.90;;;;;;5078420;28;20045;-57
2023/08/05 02:23:58;;;;;;;10.93;5.45;;;14.40;99.90;;;;;;5078338;28;20052;-57
2023/08/05 02:26:24;;;;;;;9.27;5.53;;;14.40;99.90;;;;;;5058978;28;20068;-57
2023/08/05 02:28:50;;;;;;;10.50;5.53;;;14.30;99.90;;;;;;5079317;28;20055;-57
2023/08/05 02:31:16;;;;;;;10.57;5.50;;;14.30;99.90;;;;;;5076974;28;20482;-57
2023/08/05 02:33:42;;;;;;;10.20;5.25;;;14.30;99.90;;;;;;5078788;28;20466;-58
2023/08/05 02:36:08;;;;;;;9.40;5.13;;;14.30;99.90;;;;;;5077259;28;20040;-57
2023/08/05 02:38:34;;;;;;;11.05;5.50;;;14.20;99.90;;;;;;5078555;28;20039;-57
2023/08/05 02:41:00;;;;;;;11.23;5.60;;;14.20;99.90;;;;;;5077911;28;20067;-57
2023/08/05 02:43:25;;;;;;;9.35;5.03;;;14.20;99.90;;;;;;5077114;28;20162;-58
2023/08/05 02:45:55;;;;;;;8.27;5.22;;;14.30;99.90;;;;;;5079009;28;20082;-58
2023/08/05 02:48:22;;;;;;;9.57;5.20;;;14.30;99.90;;;;;;5076351;28;20106;-58
2023/08/05 02:50:49;;;;;;;11.85;5.28;;;14.30;99.90;;;;;;5078720;28;20051;-58
2023/08/05 02:53:15;;;;;;;11.23;5.75;;;14.30;99.90;;;;;;5076982;28;20076;-58
2023/08/05 02:55:40;;;;;;;8.30;4.78;;;14.20;99.90;;;;;;5078204;28;20063;-57
2023/08/05 02:58:07;;;;;;;10.40;5.50;;;14.30;99.90;;;;;;5098360;28;20048;-58
2023/08/05 03:00:33;;;;;;;12.55;5.53;;;14.20;99.90;;;;;;5079061;28;20041;-57
2023/08/05 03:02:59;;;;;;;12.00;5.68;;;14.20;99.90;;;;;;5099084;28;20063;-58
2023/08/05 03:05:24;;;;;;;10.80;5.60;;;14.30;99.90;;;;;;5096792;28;20048;-58
2023/08/05 03:07:50;;;;;;;10.23;5.93;;;14.20;99.90;;;;;;5098629;28;20050;-57
2023/08/05 03:10:16;;;;;;;9.73;5.18;;;14.20;99.90;;;;;;5097171;28;20051;-58
2023/08/05 03:12:42;;;;;;;9.23;4.97;;;14.30;99.90;;;;;;5098157;28;20040;-58
2023/08/05 03:15:08;;;;;;;10.13;5.20;;;14.30;99.90;;;;;;5097991;28;20047;-57
2023/08/05 03:17:35;;;;;;;9.65;5.22;;;14.30;99.90;;;;;;5097073;28;20040;-57
2023/08/05 03:20:05;;;;;;;10.27;5.30;;;14.20;99.90;;;;;;5080368;28;20048;-57
2023/08/05 03:22:31;;;;;;;10.50;4.90;;;14.30;99.90;;;;;;5096562;28;20046;-57
2023/08/05 03:24:59;;;;;;;10.10;4.78;;;14.20;99.90;;;;;;5098885;28;20032;-58
2023/08/05 03:27:24;;;;;;;8.88;5.05;;;14.30;99.90;;;;;;5096408;28;20044;-56
2023/08/05 03:29:50;;;;;;;10.98;5.07;;;14.30;99.90;;;;;;5098113;28;20085;-57
2023/08/05 03:32:16;;;;;;;10.35;5.35;;;14.30;99.90;;;;;;5097461;28;20070;-57
2023/08/05 03:34:41;;;;;;;10.35;4.68;;;14.30;99.90;;;;;;5099420;28;20055;-58
2023/08/05 03:37:07;;;;;;;10.65;5.20;;;14.40;99.90;;;;;;5102660;28;20043;-58
2023/08/05 03:39:33;;;;;;;8.93;4.88;;;14.40;99.90;;;;;;5100121;28;20064;-59
2023/08/05 03:41:58;;;;;;;10.55;4.95;;;14.30;99.90;;;;;;5102161;28;20096;-58
2023/08/05 03:44:24;;;;;;;8.98;4.63;;;14.40;99.90;;;;;;5100537;28;20040;-58
2023/08/05 03:46:50;;;;;;;9.52;4.50;;;14.30;99.90;;;;;;5101714;28;20105;-57
2023/08/05 03:49:15;;;;;;;10.70;5.25;;;14.30;99.90;;;;;;5101243;28;20396;-58
2023/08/05 03:51:41;;;;;;;10.50;5.10;;;14.30;99.90;;;;;;5101068;28;20597;-58
2023/08/05 03:54:07;;;;;;;10.57;5.25;;;14.30;99.90;;;;;;5102339;28;20036;-58
2023/08/05 03:56:32;;;;;;;11.23;5.10;;;14.40;99.90;;;;;;5092403;28;20063;-58
2023/08/05 03:58:58;;;;;;;10.75;5.10;;;14.40;99.90;;;;;;5101511;28;20055;-58
2023/08/05 04:01:26;;;;;;;11.30;5.57;;;14.40;99.90;;;;;;5100328;28;20048;-58
2023/08/05 04:03:52;;;;;;;10.38;5.00;;;14.40;99.90;;;;;;5101690;28;20071;-58
2023/08/05 04:06:20;;;;;;;9.50;4.57;;;14.40;99.90;;;;;;5100963;28;20044;-58
2023/08/05 04:08:53;;;;;;;13.50;5.38;;;14.40;99.90;;;;;;5100744;28;20044;-58
2023/08/05 04:11:20;;;;;;;10.73;4.80;;;14.40;99.90;;;;;;5084127;28;20051;-59
2023/08/05 04:13:46;;;;;;;11.43;5.15;;;14.40;99.90;;;;;;5099423;28;20036;-59
2023/08/05 04:16:11;;;;;;;9.32;4.65;;;14.40;99.90;;;;;;5102067;28;20047;-58
2023/08/05 04:18:38;;;;;;;10.02;4.90;;;14.30;99.90;;;;;;5099784;28;20074;-57
2023/08/05 04:21:04;;;;;;;9.20;4.60;;;14.40;99.90;;;;;;5101345;28;20032;-58
2023/08/05 04:23:34;;;;;;;9.63;4.65;;;14.40;99.90;;;;;;5100568;28;20068;-58
2023/08/05 04:26:01;;;;;;;10.65;5.20;;;14.40;99.90;;;;;;5100888;28;20048;-58
2023/08/05 04:28:27;;;;;;;9.77;5.07;;;14.40;99.90;;;;;;5101680;28;20066;-58
2023/08/05 04:30:53;;;;;;;11.43;4.95;;;14.40;99.90;;;;;;5099155;28;20523;-59
2023/08/05 04:33:19;;;;;;;9.60;4.70;;;14.40;99.90;;;;;;5101293;28;20040;-58
2023/08/05 04:35:49;;;;;;;9.35;4.57;;;14.30;99.90;;;;;;5099868;28;20123;-59
2023/08/05 04:38:15;;;;;;;10.18;4.47;;;14.40;99.90;;;;;;5101138;28;20122;-58
2023/08/05 04:40:42;;;;;;;12.07;5.03;;;14.40;99.90;;;;;;5100235;28;20052;-58
2023/08/05 04:43:07;;;;;;;10.55;4.97;;;14.40;99.90;;;;;;5100144;28;20041;-58
2023/08/05 04:45:35;;;;;;;11.52;4.45;;;14.50;99.90;;;;;;5100641;28;20052;-58
2023/08/05 04:48:01;;;;;;;10.15;4.60;;;14.70;99.90;;;;;;5098767;28;20083;-58
2023/08/05 04:50:27;;;;;;;10.38;4.80;;;14.80;99.90;;;;;;5101270;28;20040;-58
2023/08/05 04:52:52;;;;;;;9.88;4.38;;;14.80;99.90;;;;;;5098811;28;20058;-58
2023/08/05 04:55:18;;;;;;;9.02;4.25;;;14.90;99.90;;;;;;5098691;28;20456;-58
2023/08/05 04:57:45;;;;;;;10.90;4.25;;;15.00;99.90;;;;;;5081812;28;20377;-57
2023/08/05 05:00:11;;;;;;;8.57;4.40;;;15.00;99.90;;;;;;5079482;28;20127;-58
2023/08/05 05:02:40;;;;;;;12.48;4.53;;;14.90;99.90;;;;;;5080810;28;20531;-59
2023/08/05 05:05:06;;;;;;;14.63;4.38;;;15.00;99.90;;;;;;5078812;28;20101;-58
2023/08/05 05:07:32;;;;;;;7.65;3.85;;;15.10;99.90;;;;;;5080922;28;20062;-59
2023/08/05 05:09:58;;;;;;;10.63;3.95;;;15.30;99.90;;;;;;5078399;28;20487;-58
2023/08/05 05:12:24;;;;;;;12.52;4.00;;;15.30;99.90;;;;;;5080445;28;20431;-58
2023/08/05 05:14:50;;;;;;;9.15;3.60;;;15.50;99.90;;;;;;5079044;28;20044;-60
2023/08/05 05:17:16;;;;;;;8.57;3.65;;;15.60;99.90;;;;;;5079200;28;20105;-60
2023/08/05 05:19:43;;;;;;;10.23;3.85;;;15.70;99.90;;;;;;5080048;28;20071;-59
2023/08/05 05:22:09;;;;;;;9.68;4.20;;;15.60;99.90;;;;;;5077983;28;20094;-60
2023/08/05 05:24:35;;;;;;;8.52;4.05;;;15.60;99.90;;;;;;5080014;28;20059;-58
2023/08/05 05:27:01;;;;;;;8.85;4.43;;;15.70;99.90;;;;;;5072748;28;20036;-58
2023/08/05 05:29:29;;;;;;;8.13;3.95;;;15.60;99.90;;;;;;5057093;28;20133;-58
2023/08/05 05:31:54;;;;;;;6.95;3.90;;;15.70;99.90;;;;;;5074820;28;20046;-58
2023/08/05 05:34:20;;;;;;;8.50;4.47;;;15.70;99.90;;;;;;5075146;28;20078;-57
2023/08/05 05:36:46;;;;;;;9.38;4.60;;;15.80;99.90;;;;;;5076130;28;20076;-58
2023/08/05 05:39:11;;;;;;;9.57;4.30;;;15.80;99.90;;;;;;5073461;28;20064;-58
2023/08/05 05:41:37;;;;;;;9.70;4.55;;;15.90;99.90;;;;;;5058440;28;20102;-57
2023/08/05 05:44:05;;;;;;;10.50;4.00;;;15.70;99.90;;;;;;5055510;28;20049;-57
2023/08/05 05:46:32;;;;;;;8.02;4.20;;;15.70;99.90;;;;;;5075770;28;20648;-58
2023/08/05 05:48:58;;;;;;;10.43;4.43;;;15.70;99.90;;;;;;5073961;28;20048;-57
2023/08/05 05:51:24;;;;;;;8.82;4.22;;;15.60;99.90;;;;;;5075148;28;20718;-58
2023/08/05 05:53:53;;;;;;;8.82;4.45;;;15.40;99.90;;;;;;5075182;28;20067;-57
2023/08/05 05:56:18;;;;;;;10.63;4.57;;;15.40;99.90;;;;;;5060772;28;20050;-58
2023/08/05 05:58:44;;;;;;;9.38;4.40;;;15.40;99.90;;;;;;5096254;28;20048;-58
2023/08/05 06:01:10;;;;;;;9.93;4.25;;;15.40;99.90;;;;;;5075361;28;20070;-57
2023/08/05 06:03:37;;;;;;;11.35;5.30;;;15.50;99.90;;;;;;5095626;28;20048;-58
2023/08/05 06:06:03;;;;;;;9.60;4.30;;;15.40;99.90;;;;;;5094799;28;20427;-57
2023/08/05 06:08:29;;;;;;;8.38;4.55;;;15.50;99.90;;;;;;5096734;28;20067;-57
2023/08/05 06:10:54;;;;;;;9.43;4.45;;;15.60;99.90;;;;;;5097186;28;20055;-57
2023/08/05 06:13:20;;;;;;;10.38;4.72;;;15.60;99.90;;;;;;5096139;28;20101;-58
2023/08/05 06:15:46;;;;;;;9.23;3.92;;;15.80;99.90;;;;;;5098726;28;20051;-58
2023/08/05 06:18:12;;;;;;;8.57;4.13;;;15.80;99.90;;;;;;5096273;28;20040;-58
2023/08/05 06:20:38;;;;;;;9.20;4.30;;;16.00;99.90;;;;;;5099481;28;20040;-58
2023/08/05 06:23:06;;;;;;;13.77;3.95;;;16.10;99.90;;;;;;5097544;28;20048;-58
2023/08/05 06:25:32;;;;;;;7.63;3.17;;;16.30;99.90;;;;;;5098942;28;20044;-58
2023/08/05 06:27:57;;;;;;;10.55;3.22;;;16.30;99.90;;;;;;5098716;28;20048;-58
2023/08/05 06:30:23;;;;;;;6.72;2.55;;;16.40;99.90;;;;;;5097611;28;20502;-58
2023/08/05 06:32:49;;;;;;;8.57;2.90;;;16.40;99.90;;;;;;5099804;28;20044;-58
2023/08/05 06:35:15;;;;;;;6.60;2.75;;;16.40;99.90;;;;;;5096683;28;20044;-58
2023/08/05 06:37:40;;;;;;;7.05;2.85;;;16.50;99.90;;;;;;5099518;28;20032;-58
2023/08/05 06:40:07;;;;;;;7.57;2.90;;;16.50;99.90;;;;;;5096996;28;20094;-58
2023/08/05 06:42:32;;;;;;;7.50;2.78;;;16.40;99.90;;;;;;5098901;28;20032;-58
2023/08/05 06:44:58;;;;;;;7.95;2.50;;;16.50;99.90;;;;;;5098019;28;20032;-58
2023/08/05 06:47:30;;;;;;;7.90;2.67;;;16.70;99.90;;;;;;5097722;28;20055;-58
2023/08/05 06:50:01;;;;;;;7.10;2.22;;;16.90;99.90;;;;;;5098735;28;20043;-58
2023/08/05 06:52:27;;;;;;;6.13;2.47;;;17.10;99.90;;;;;;5096590;28;20119;-58
2023/08/05 06:54:52;;;;;;;6.63;2.00;;;17.20;99.90;;;;;;5098921;28;20083;-58
2023/08/05 06:57:18;;;;;;;5.75;2.40;;;17.60;99.90;;;;;;5082817;28;20041;-58
2023/08/05 06:59:44;;;;;;;6.07;2.17;;;17.80;99.90;;;;;;5078299;28;20076;-58
2023/08/05 07:02:11;;;;;;;6.28;1.95;;;17.80;99.90;;;;;;5077675;28;20036;-57
2023/08/05 07:04:37;;;;;;;6.80;2.20;;;17.80;99.90;;;;;;5077083;28;20048;-59
2023/08/05 07:07:03;;;;;;;5.35;2.20;;;17.60;99.90;;;;;;5078547;28;20048;-59
2023/08/05 07:09:28;;;;;;;6.80;2.28;;;17.70;99.90;;;;;;5075939;28;20036;-58
2023/08/05 07:11:54;;;;;;;4.93;2.03;;;17.50;99.90;;;;;;5078205;28;20040;-58
2023/08/05 07:14:20;;;;;;;6.05;2.47;;;17.50;99.90;;;;;;5076548;28;20074;-58
2023/08/05 07:16:46;;;;;;;6.10;2.20;;;17.50;99.90;;;;;;5078469;28;20135;-59
2023/08/05 07:19:12;;;;;;;8.88;2.83;;;17.50;99.90;;;;;;5059076;28;20049;-58
2023/08/05 07:21:37;;;;;;;5.47;2.08;;;17.60;99.90;;;;;;5077392;28;20040;-58
2023/08/05 07:24:03;;;;;;;6.63;1.80;;;17.60;99.90;;;;;;5078364;28;20032;-60
2023/08/05 07:26:29;;;;;;;6.88;2.22;;;17.50;99.90;;;;;;5076515;28;20047;-58
2023/08/05 07:28:54;;;;;;;6.22;2.10;;;17.60;99.90;;;;;;5077986;28;20041;-59
2023/08/05 07:31:20;;;;;;;8.55;2.30;;;17.70;99.90;;;;;;5076243;28;20033;-58
2023/08/05 07:33:46;;;;;;;8.73;2.10;;;17.50;99.90;;;;;;5077631;28;20045;-59
2023/08/05 07:36:16;;;;;;;7.72;2.85;;;17.40;99.90;;;;;;5076650;28;20048;-58
2023/08/05 07:38:44;;;;;;;5.82;2.03;;;17.50;99.90;;;;;;5077388;28;20041;-58
2023/08/05 07:41:12;;;;;;;5.13;2.55;;;17.40;99.90;;;;;;5077828;28;20067;-61
2023/08/05 07:43:38;;;;;;;6.38;2.08;;;17.40;99.90;;;;;;5076327;28;20044;-58
2023/08/05 07:46:06;;;;;;;6.57;2.17;;;17.50;99.90;;;;;;5077771;28;20044;-59
2023/08/05 07:48:35;;;;;;;7.85;2.55;;;17.50;99.90;;;;;;5076226;28;20063;-59
2023/08/05 07:51:06;;;;;;;6.45;2.33;;;17.60;99.90;;;;;;5077813;28;20043;-59
2023/08/05 07:53:35;;;;;;;7.82;2.53;;;17.70;99.90;;;;;;5077191;28;20087;-61
2023/08/05 07:56:11;;;;;;;7.68;2.30;;;17.80;99.90;;;;;;5079566;28;20513;-61
2023/08/05 07:58:42;;;;;;;7.07;2.00;;;17.80;99.90;;;;;;5098193;28;20055;-60
2023/08/05 08:01:08;;;;;;;7.00;2.20;;;17.90;99.90;;;;;;5096423;28;20101;-60
2023/08/05 08:03:35;;;;;;;8.88;2.67;;;18.00;99.90;;;;;;5098087;28;20036;-60
2023/08/05 08:06:01;;;;;;;5.68;2.40;;;18.20;99.90;;;;;;5096815;28;20048;-60
2023/08/05 08:08:26;;;;;;;5.47;2.42;;;18.10;99.90;;;;;;5097427;28;20044;-60
2023/08/05 08:10:52;;;;;;;5.28;2.03;;;18.10;99.90;;;;;;5097793;28;20084;-60
2023/08/05 08:13:18;;;;;;;5.05;2.15;;;18.10;99.90;;;;;;5096277;28;20055;-60
2023/08/05 08:15:43;;;;;;;5.75;1.90;;;18.10;99.90;;;;;;5080126;28;20135;-60
2023/08/05 08:18:09;;;;;;;9.35;2.53;;;18.30;99.90;;;;;;5095401;28;20044;-57
2023/08/05 08:20:35;;;;;;;6.88;2.30;;;18.30;99.90;;;;;;5098443;28;20091;-57
2023/08/05 08:23:00;;;;;;;5.50;2.38;;;18.30;99.90;;;;;;5100191;28;20048;-58
2023/08/05 08:25:26;;;;;;;7.40;2.97;;;18.20;99.90;;;;;;5101179;28;20464;-58
2023/08/05 08:27:52;;;;;;;5.68;2.17;;;18.40;99.90;;;;;;5100725;28;20048;-58
2023/08/05 08:30:17;;;;;;;6.43;2.08;;;18.40;99.90;;;;;;5099913;28;20418;-58
2023/08/05 08:32:43;;;;;;;8.15;2.60;;;18.40;99.90;;;;;;5083574;28;20107;-57
2023/08/05 08:35:09;;;;;;;6.40;2.67;;;18.60;99.90;;;;;;5099368;28;20032;-57
2023/08/05 08:37:34;;;;;;;6.03;2.38;;;18.70;99.90;;;;;;5101336;28;20067;-58
2023/08/05 08:40:00;;;;;;;6.43;2.60;;;18.50;99.90;;;;;;5099600;28;20056;-57
2023/08/05 08:42:26;;;;;;;6.05;2.40;;;18.50;99.90;;;;;;5100677;28;20105;-58
2023/08/05 08:44:53;;;;;;;6.65;2.25;;;18.70;99.90;;;;;;5100367;28;20049;-57
2023/08/05 08:47:22;;;;;;;6.85;1.98;;;18.60;99.90;;;;;;5099769;28;20104;-58
2023/08/05 08:49:52;;;;;;;6.45;2.35;;;18.70;99.90;;;;;;5101336;28;20040;-57
2023/08/05 08:52:18;;;;;;;5.70;2.30;;;18.60;99.90;;;;;;5099025;28;20480;-57
2023/08/05 08:54:44;;;;;;;9.82;2.15;;;18.60;99.90;;;;;;5101338;28;20050;-57
2023/08/05 08:57:13;;;;;;;6.85;2.28;;;18.70;99.90;;;;;;5086536;28;20119;-55
2023/08/05 08:59:39;;;;;;;6.45;2.25;;;18.70;99.90;;;;;;5080434;28;20048;-57
2023/08/05 09:02:17;;;;;;;5.78;2.00;;;18.90;99.90;;;;;;5079933;28;20048;-57
2023/08/05 09:04:46;;;;;;;7.80;2.38;;;19.00;99.90;;;;;;5060853;28;20073;-58
2023/08/05 09:07:13;;;;;;;5.50;1.75;;;19.10;99.90;;;;;;5081103;28;20377;-57
2023/08/05 09:09:38;;;;;;;5.30;1.95;;;19.10;99.90;;;;;;5078049;28;20047;-57
2023/08/05 09:12:04;;;;;;;7.40;1.83;;;19.10;97.60;;;;;;5080512;28;20555;-57
2023/08/05 09:14:30;;;;;;;6.97;2.00;;;19.10;95.20;;;;;;5060925;28;20045;-58
2023/08/05 09:17:00;;;;;;;5.40;1.85;;;19.20;98.80;;;;;;5079771;28;20470;-57
2023/08/05 09:19:28;;;;;;;5.18;1.80;;;19.10;97.70;;;;;;5079970;28;20076;-57
2023/08/05 09:22:01;;;;;;;6.50;2.40;;;19.00;96.90;;;;;;5078218;28;20044;-57
2023/08/05 09:24:27;;;;;;;4.63;1.70;;;19.10;99.30;;;;;;5080452;28;20078;-57
2023/08/05 09:26:57;;;;;;;6.35;2.17;;;19.20;96.70;;;;;;5078165;28;20068;-57
2023/08/05 09:29:24;;;;;;;5.38;2.00;;;19.20;96.40;;;;;;5080158;28;20041;-58
2023/08/05 09:32:04;;;;;;;5.22;1.80;;;19.30;99.50;;;;;;5078489;28;20052;-57
2023/08/05 09:34:37;;;;;;;7.10;2.00;;;19.40;98.80;;;;;;5078409;28;20052;-57
2023/08/05 09:37:04;;;;;;;6.38;2.00;;;19.70;92.70;;;;;;5080558;28;20040;-58
2023/08/05 09:39:51;;;;;;;5.10;1.75;;;19.70;93.50;;;;;;5077602;28;20523;-58
2023/08/05 09:42:23;;;;;;;6.47;1.85;;;19.60;88.30;;;;;;5079830;28;20100;-58
2023/08/05 09:44:52;;;;;;;6.20;1.80;;;19.70;90.70;;;;;;5078670;28;20132;-57
2023/08/05 09:47:23;;;;;;;5.53;1.90;;;19.90;89.10;;;;;;5060298;28;20059;-57
2023/08/05 09:49:52;;;;;;;4.88;1.73;;;20.10;91.90;;;;;;5079917;28;20101;-57
2023/08/05 09:52:21;;;;;;;4.50;1.70;;;20.20;85.90;;;;;;5077384;28;20068;-57
2023/08/05 09:55:11;;;;;;;4.93;1.50;;;20.30;74.80;;;;;;5079925;28;20041;-57
2023/08/05 09:57:37;;;;;;;4.72;1.48;;;20.30;74.50;;;;;;5094813;28;20044;-58
2023/08/05 10:00:08;;;;;;;6.07;1.40;;;20.10;73.00;;;;;;5099127;28;20055;-58
2023/08/05 10:02:35;;;;;;;5.60;1.83;;;20.00;77.30;;;;;;5100257;28;20054;-58
2023/08/05 10:05:02;;;;;;;3.67;1.58;;;20.50;79.80;;;;;;5097833;28;20036;-57
2023/08/05 10:07:28;;;;;;;4.85;1.70;;;20.40;64.20;;;;;;5100002;28;20044;-57
2023/08/05 10:09:54;;;;;;;5.13;1.73;;;20.10;66.90;;;;;;5097325;28;20043;-57
2023/08/05 10:12:46;;;;;;;4.05;1.30;;;20.20;76.20;;;;;;5081213;28;20136;-57
2023/08/05 10:15:19;;;;;;;4.55;1.70;;;20.40;75.20;;;;;;5098719;28;20051;-57
2023/08/05 10:17:46;;;;;;;5.35;1.60;;;20.40;72.90;;;;;;5078813;28;20051;-57
2023/08/05 10:20:12;;;;;;;4.25;1.65;;;20.50;75.00;;;;;;5081708;28;20047;-57
2023/08/05 10:22:41;;;;;;;3.95;1.60;;;20.70;73.00;;;;;;5097387;28;20070;-57
2023/08/05 10:25:07;;;;;;;6.28;1.90;;;20.60;68.00;;;;;;5099310;28;20048;-57
2023/08/05 10:27:36;;;;;;;4.25;1.70;;;20.90;68.00;;;;;;5097811;28;20121;-58
2023/08/05 10:30:07;;;;;;;4.85;1.63;;;20.80;66.20;;;;;;5098436;28;20047;-57
2023/08/05 10:32:34;;;;;;;6.22;2.00;;;20.60;61.70;;;;;;5099311;28;20096;-57
2023/08/05 10:35:38;;;;;;;5.00;1.73;;;20.80;68.40;;;;;;5097112;28;20059;-57
2023/08/05 10:38:16;;;;;;;4.68;1.63;;;20.90;63.80;;;;;;5080817;28;20043;-57
2023/08/05 10:40:56;;;;;;;5.68;2.00;;;20.90;68.90;;;;;;5098144;28;20052;-57
2023/08/05 10:43:30;;;;;;;5.65;2.13;;;20.90;74.30;;;;;;5096470;28;20048;-57
2023/08/05 10:46:01;;;;;;;8.23;2.17;;;20.90;64.40;;;;;;5098752;28;20059;-57
2023/08/05 10:48:34;;;;;;;5.93;1.70;;;20.90;69.20;;;;;;5096383;28;20060;-57
2023/08/05 10:51:14;;;;;;;4.40;1.77;;;20.90;71.50;;;;;;5098864;28;20119;-58
2023/08/05 10:53:45;;;;;;;5.10;1.92;;;20.80;69.90;;;;;;5098055;28;20083;-56
2023/08/05 10:56:14;;;;;;;4.97;1.85;;;20.80;72.10;;;;;;5092458;28;20078;-57
2023/08/05 10:58:51;;;;;;;4.85;1.70;;;20.80;66.80;;;;;;5078794;28;20044;-58
2023/08/05 11:01:18;;;;;;;4.22;1.70;;;20.70;64.40;;;;;;5076835;28;20048;-57
2023/08/05 11:03:49;;;;;;;5.68;2.08;;;20.80;70.60;;;;;;5078245;28;20082;-58
2023/08/05 11:06:21;;;;;;;4.28;1.77;;;21.00;60.50;;;;;;5077420;28;20487;-58
2023/08/05 11:08:48;;;;;;;5.38;1.60;;;21.10;68.60;;;;;;5077045;28;20054;-58
2023/08/05 11:11:15;;;;;;;5.03;1.65;;;21.20;67.80;;;;;;5078858;28;20052;-58
2023/08/05 11:13:43;;;;;;;4.75;1.95;;;21.20;62.40;;;;;;5076513;28;20129;-58
2023/08/05 11:16:11;;;;;;;5.38;1.65;;;20.90;59.50;;;;;;5078401;28;20075;-58
2023/08/05 11:18:41;;;;;;;5.78;1.90;;;21.00;73.50;;;;;;5076413;28;20105;-57
2023/08/05 11:21:10;;;;;;;5.47;2.00;;;21.00;73.10;;;;;;5077977;28;20074;-58
2023/08/05 11:23:38;;;;;;;5.03;1.70;;;21.00;62.30;;;;;;5077745;28;20044;-58
2023/08/05 11:26:04;;;;;;;4.47;1.70;;;21.10;66.20;;;;;;5076815;28;20059;-58
2023/08/05 11:28:31;;;;;;;4.78;1.77;;;21.30;66.00;;;;;;5078395;28;20666;-57
2023/08/05 11:30:57;;;;;;;4.45;1.70;;;21.30;65.30;;;;;;5076471;28;20036;-57
2023/08/05 11:33:23;;;;;;;4.50;1.92;;;21.50;60.50;;;;;;5078128;28;20127;-58
2023/08/05 11:35:52;;;;;;;4.65;1.70;;;21.20;62.80;;;;;;5076649;28;20091;-57
2023/08/05 11:38:24;;;;;;;4.53;1.55;;;21.30;65.50;;;;;;5077524;28;20049;-57
2023/08/05 11:40:57;;;;;;;3.83;1.55;;;21.30;62.20;;;;;;5077640;28;20053;-57
2023/08/05 11:43:24;;;;;;;6.30;2.10;;;21.40;69.70;;;;;;5076621;28;20084;-57
2023/08/05 11:45:54;;;;;;;6.32;2.00;;;21.10;62.90;;;;;;5078307;28;20036;-58
2023/08/05 11:48:29;;;;;;;5.15;1.92;;;21.10;65.90;;;;;;5076242;28;20045;-58
2023/08/05 11:51:03;;;;;;;4.85;1.83;;;21.30;66.80;;;;;;5077751;28;20079;-58
2023/08/05 11:53:29;;;;;;;4.60;1.80;;;21.30;66.40;;;;;;5077847;28;20459;-58
2023/08/05 11:55:55;;;;;;;6.90;2.03;;;21.20;63.50;;;;;;5081517;28;20072;-58
2023/08/05 11:58:23;;;;;;;4.90;2.05;;;21.40;65.90;;;;;;5102420;28;20074;-58
2023/08/05 12:01:04;;;;;;;6.57;2.42;;;21.30;62.20;;;;;;5100233;28;20527;-57
2023/08/05 12:03:32;;;;;;;5.55;2.20;;;21.10;59.60;;;;;;5083948;28;20048;-58
2023/08/05 12:06:02;;;;;;;6.35;2.05;;;21.30;61.10;;;;;;5100816;28;20032;-57
2023/08/05 12:08:44;;;;;;;5.40;1.80;;;21.20;60.30;;;;;;5101192;28;20040;-57
2023/08/05 12:11:13;;;;;;;5.20;1.65;;;21.30;60.50;;;;;;5102272;28;20048;-57
2023/08/05 12:13:41;;;;;;;10.02;3.00;;;21.00;61.80;;;;;;5099950;28;20043;-59
2023/08/05 12:16:15;;;;;;;6.70;2.40;;;21.10;63.90;;;;;;5101842;28;20054;-58
2023/08/05 12:18:46;;;;;;;5.00;2.13;;;21.10;56.40;;;;;;5100028;28;20733;-54
2023/08/05 12:21:13;;;;;;;5.80;2.13;;;21.10;59.60;;;;;;5100903;28;20119;-58
2023/08/05 12:23:42;;;;;;;6.15;2.42;;;21.00;61.60;;;;;;5101574;28;20051;-57
2023/08/05 12:26:08;;;;;;;6.93;2.30;;;20.90;62.80;;;;;;5099794;28;20110;-57
2023/08/05 12:28:34;;;;;;;6.43;2.40;;;20.80;62.80;;;;;;5102106;28;20115;-57
2023/08/05 12:31:00;;;;;;;4.85;2.33;;;20.80;66.70;;;;;;5099107;28;20059;-57
2023/08/05 12:33:27;;;;;;;5.65;2.50;;;20.50;65.90;;;;;;5101485;28;20040;-58
2023/08/05 12:35:53;;;;;;;5.00;2.30;;;20.60;74.80;;;;;;5099799;28;20051;-55
2023/08/05 12:38:19;;;;;;;5.60;2.25;;;20.40;77.10;;;;;;5100838;28;20040;-58
2023/08/05 12:40:44;;;;;;;8.13;2.83;;;20.30;76.30;;;;;;5100968;28;20185;-57
2023/08/05 12:43:12;;;;;;;5.25;2.72;;;20.30;82.70;;;;;;5099854;28;20048;-57
2023/08/05 12:45:40;;;;;;;6.45;2.95;;;20.20;84.20;;;;;;5101781;28;20036;-57